createdAt,value
2023-01-17T00:00:21.868Z,93643.69
2023-01-17T00:03:25.854Z,93647.53
2023-01-17T00:06:47.972Z,93637.09
2023-01-17T00:09:54.631Z,93652.81
2023-01-17T00:13:00.603Z,93644.25
2023-01-17T00:16:04.573Z,93650.88
2023-01-17T00:19:26.485Z,93644.59
2023-01-17T00:22:53.379Z,93645.50
2023-01-17T00:26:06.286Z,93651.63
2023-01-17T00:29:10.127Z,93653.47
2023-01-17T00:32:13.931Z,93661.59
2023-01-17T00:35:18.200Z,93659.44
2023-01-17T00:38:24.070Z,93655.56
2023-01-17T00:41:29.438Z,93661.53
2023-01-17T00:44:50.833Z,93661.47
2023-01-17T00:48:13.247Z,93665.00
2023-01-17T00:51:35.550Z,93665.50
2023-01-17T00:54:57.046Z,93664.38
2023-01-17T00:58:25.139Z,93665.84
2023-01-17T01:01:47.247Z,93667.44
2023-01-17T01:05:09.109Z,93672.00
2023-01-17T01:08:40.053Z,93656.63
2023-01-17T01:12:01.796Z,93661.63
2023-01-17T01:15:24.336Z,93669.03
2023-01-17T01:18:46.806Z,93664.22
2023-01-17T01:22:09.115Z,93667.47
2023-01-17T01:25:31.661Z,93662.56
2023-01-17T01:28:53.645Z,93662.59
2023-01-17T01:32:15.364Z,93661.63
2023-01-17T01:35:18.516Z,93660.69
2023-01-17T01:38:24.396Z,93656.81
2023-01-17T01:41:27.393Z,93661.78
2023-01-17T01:44:51.983Z,93656.88
2023-01-17T01:48:12.470Z,93666.53
2023-01-17T01:51:21.432Z,93661.88
2023-01-17T01:54:32.001Z,93666.31
2023-01-17T01:57:50.401Z,93673.91
2023-01-17T02:00:54.122Z,93668.94
2023-01-17T02:03:58.319Z,93662.50
2023-01-17T02:07:08.876Z,93659.59
2023-01-17T02:10:13.668Z,93666.88
2023-01-17T02:13:19.860Z,93653.41
2023-01-17T02:16:51.569Z,93655.44
2023-01-17T02:20:13.028Z,93653.69
2023-01-17T02:23:55.019Z,93655.47
2023-01-17T02:27:19.113Z,93655.78
2023-01-17T02:30:41.971Z,93657.81
2023-01-17T02:33:59.609Z,93650.72
2023-01-17T02:37:19.687Z,93646.13
2023-01-17T02:40:31.450Z,93637.66
2023-01-17T02:43:38.171Z,93626.06
2023-01-17T02:46:50.066Z,93628.94
2023-01-17T02:50:02.064Z,93629.53
2023-01-17T02:53:47.945Z,93628.28
2023-01-17T02:57:16.159Z,93627.97
2023-01-17T03:00:27.965Z,93619.78
2023-01-17T03:03:40.810Z,93623.47
2023-01-17T03:06:58.705Z,93622.63
2023-01-17T03:10:05.551Z,93612.66
2023-01-17T03:13:09.377Z,93611.44
2023-01-17T03:16:21.718Z,93602.63
2023-01-17T03:19:25.086Z,93597.97
2023-01-17T03:22:28.143Z,93590.84
2023-01-17T03:25:32.239Z,93576.88
2023-01-17T03:28:35.729Z,93573.72
2023-01-17T03:31:39.818Z,93565.09
2023-01-17T03:34:43.427Z,93557.09
2023-01-17T03:37:47.366Z,93561.56
2023-01-17T03:40:50.860Z,93561.41
2023-01-17T03:43:54.177Z,93561.84
2023-01-17T03:46:57.243Z,93560.16
2023-01-17T03:50:01.207Z,93553.56
2023-01-17T03:53:04.445Z,93552.78
2023-01-17T03:56:08.689Z,93544.66
2023-01-17T03:59:13.152Z,93541.63
2023-01-17T04:02:17.073Z,93537.16
2023-01-17T04:05:20.761Z,93531.50
2023-01-17T04:08:24.040Z,93525.44
2023-01-17T04:11:26.903Z,93520.72
2023-01-17T04:14:31.100Z,93519.41
2023-01-17T04:17:34.783Z,93518.34
2023-01-17T04:20:40.144Z,93508.81
2023-01-17T04:23:43.844Z,93497.34
2023-01-17T04:26:48.002Z,93503.06
2023-01-17T04:29:51.984Z,93492.34
2023-01-17T04:32:56.423Z,93490.44
2023-01-17T04:36:00.640Z,93482.53
2023-01-17T04:39:04.460Z,93479.72
2023-01-17T04:42:10.036Z,93475.88
2023-01-17T04:45:14.297Z,93469.97
2023-01-17T04:48:17.676Z,93460.44
2023-01-17T04:51:21.360Z,93458.81
2023-01-17T04:54:25.513Z,93459.03
2023-01-17T04:57:28.539Z,93455.03
2023-01-17T05:00:31.794Z,93441.78
2023-01-17T05:03:36.370Z,93440.22
2023-01-17T05:06:40.378Z,93436.25
2023-01-17T05:09:44.503Z,93425.50
2023-01-17T05:12:59.157Z,93425.97
2023-01-17T05:16:02.765Z,93424.03
2023-01-17T05:19:06.732Z,93418.94
2023-01-17T05:22:15.983Z,93414.66
2023-01-17T05:25:19.545Z,93410.06
2023-01-17T05:28:23.204Z,93408.84
2023-01-17T05:31:27.251Z,93401.78
2023-01-17T05:34:32.376Z,93401.06
2023-01-17T05:37:36.464Z,93398.53
2023-01-17T05:40:39.922Z,93388.94
2023-01-17T05:43:44.105Z,93384.44
2023-01-17T05:46:47.746Z,93377.75
2023-01-17T05:49:51.059Z,93376.53
2023-01-17T05:52:59.612Z,93367.47
2023-01-17T05:56:03.602Z,93362.78
2023-01-17T05:59:07.176Z,93352.94
2023-01-17T06:02:11.205Z,93353.69
2023-01-17T06:05:16.260Z,93350.31
2023-01-17T06:08:19.638Z,93351.91
2023-01-17T06:11:22.967Z,93354.44
2023-01-17T06:14:26.919Z,93353.13
2023-01-17T06:17:29.799Z,93346.94
2023-01-17T06:20:34.271Z,93342.38
2023-01-17T06:23:37.157Z,93343.09
2023-01-17T06:26:41.134Z,93339.41
2023-01-17T06:29:44.752Z,93335.78
2023-01-17T06:32:57.135Z,93339.41
2023-01-17T06:36:00.130Z,93336.47
2023-01-17T06:39:03.332Z,93335.44
2023-01-17T06:42:06.600Z,93333.88
2023-01-17T06:45:11.110Z,93333.88
2023-01-17T06:48:14.051Z,93331.94
2023-01-17T06:51:18.237Z,93325.41
2023-01-17T06:54:21.193Z,93332.34
2023-01-17T06:57:24.580Z,93328.69
2023-01-17T07:00:29.447Z,93321.22
2023-01-17T07:03:33.714Z,93319.75
2023-01-17T07:06:38.048Z,93313.13
2023-01-17T07:09:41.957Z,93311.03
2023-01-17T07:12:44.906Z,93303.06
2023-01-17T07:15:48.197Z,93308.69
2023-01-17T07:18:52.354Z,93311.66
2023-01-17T07:21:56.195Z,93300.75
2023-01-17T07:24:59.152Z,93303.59
2023-01-17T07:28:02.436Z,93297.00
2023-01-17T07:31:08.870Z,93294.94
2023-01-17T07:34:12.688Z,93299.47
2023-01-17T07:37:15.983Z,93300.66
2023-01-17T07:40:20.829Z,93300.06
2023-01-17T07:43:24.441Z,93295.63
2023-01-17T07:46:29.759Z,93304.09
2023-01-17T07:49:32.789Z,93303.03
2023-01-17T07:52:36.095Z,93299.59
2023-01-17T07:55:40.873Z,93306.22
2023-01-17T07:58:44.188Z,93299.50
2023-01-17T08:01:48.045Z,93295.03
2023-01-17T08:04:51.574Z,93299.44
2023-01-17T08:07:54.972Z,93303.25
2023-01-17T08:10:58.666Z,93294.81
2023-01-17T08:14:02.006Z,93297.72
2023-01-17T08:17:13.655Z,93294.47
2023-01-17T08:20:17.697Z,93291.03
2023-01-17T08:23:21.507Z,93283.25
2023-01-17T08:26:25.383Z,93280.59
2023-01-17T08:29:28.575Z,93287.72
2023-01-17T08:32:33.419Z,93267.41
2023-01-17T08:35:36.508Z,93266.78
2023-01-17T08:38:39.724Z,93262.13
2023-01-17T08:41:42.600Z,93257.88
2023-01-17T08:44:45.911Z,93250.41
2023-01-17T08:47:51.740Z,93253.22
2023-01-17T08:50:55.056Z,93259.56
2023-01-17T08:53:59.086Z,93267.53
2023-01-17T08:57:04.467Z,93251.66
2023-01-17T09:00:09.615Z,93257.59
2023-01-17T09:03:14.913Z,93255.34
2023-01-17T09:06:18.739Z,93261.59
2023-01-17T09:09:21.689Z,93259.03
2023-01-17T09:12:25.387Z,93253.81
2023-01-17T09:15:28.589Z,93256.44
2023-01-17T09:18:34.340Z,93248.59
2023-01-17T09:21:37.629Z,93248.66
2023-01-17T09:24:40.746Z,93259.22
2023-01-17T09:27:47.559Z,93256.13
2023-01-17T09:30:51.856Z,93261.53
2023-01-17T09:33:56.091Z,93253.88
2023-01-17T09:36:58.981Z,93254.53
2023-01-17T09:40:01.901Z,93257.09
2023-01-17T09:43:15.403Z,93256.50
2023-01-17T09:46:24.600Z,93253.13
2023-01-17T09:49:40.651Z,93249.75
2023-01-17T09:52:44.090Z,93243.19
2023-01-17T09:55:55.570Z,93237.84
2023-01-17T09:59:09.081Z,93243.22
2023-01-17T10:02:39.947Z,93239.50
2023-01-17T10:06:16.211Z,93249.09
2023-01-17T10:09:31.110Z,93246.34
2023-01-17T10:12:43.285Z,93245.13
2023-01-17T10:15:49.273Z,93239.09
2023-01-17T10:19:04.378Z,93237.59
2023-01-17T10:22:26.457Z,93227.72
2023-01-17T10:25:44.164Z,93223.31
2023-01-17T10:28:52.166Z,93226.00
2023-01-17T10:32:03.450Z,93219.13
2023-01-17T10:35:21.570Z,93223.69
2023-01-17T10:38:32.363Z,93211.00
2023-01-17T10:41:44.299Z,93200.19
2023-01-17T10:45:17.190Z,93201.66
2023-01-17T10:48:45.044Z,93200.75
2023-01-17T10:52:00.744Z,93208.38
2023-01-17T10:55:35.120Z,93200.19
2023-01-17T10:58:39.733Z,93205.44
2023-01-17T11:01:43.884Z,93193.72
2023-01-17T11:04:49.911Z,93198.00
2023-01-17T11:08:00.345Z,93199.09
2023-01-17T11:11:05.534Z,93199.91
2023-01-17T11:14:29.626Z,93194.53
2023-01-17T11:17:34.343Z,93189.22
2023-01-17T11:20:40.427Z,93190.03
2023-01-17T11:23:48.565Z,93183.59
2023-01-17T11:26:52.215Z,93183.88
2023-01-17T11:30:18.913Z,93181.63
2023-01-17T11:33:49.627Z,93175.13
2023-01-17T11:37:19.199Z,93166.97
2023-01-17T11:40:30.748Z,93167.13
2023-01-17T11:43:34.573Z,93163.53
2023-01-17T11:46:38.740Z,93164.44
2023-01-17T11:49:44.848Z,93164.34
2023-01-17T11:52:48.274Z,93163.63
2023-01-17T11:56:00.971Z,93160.13
2023-01-17T11:59:24.818Z,93154.84
2023-01-17T12:03:06.756Z,93159.16
2023-01-17T12:06:33.039Z,93158.50
2023-01-17T12:09:51.867Z,93156.84
2023-01-17T12:13:25.415Z,93154.91
2023-01-17T12:16:54.371Z,93149.81
2023-01-17T12:20:10.822Z,93153.66
2023-01-17T12:23:44.889Z,93139.72
2023-01-17T12:27:00.531Z,93132.50
2023-01-17T12:30:24.127Z,93123.22
2023-01-17T12:33:49.330Z,93121.47
2023-01-17T12:37:19.249Z,93120.53
2023-01-17T12:40:25.663Z,93121.81
2023-01-17T12:43:41.555Z,93121.03
2023-01-17T12:46:50.937Z,93116.72
2023-01-17T12:50:09.570Z,93114.97
2023-01-17T12:53:51.961Z,93107.81
2023-01-17T12:57:02.287Z,93112.84
2023-01-17T13:00:13.391Z,93110.50
2023-01-17T13:04:05.702Z,93109.09
2023-01-17T13:07:23.802Z,93096.25
2023-01-17T13:10:47.146Z,93094.22
2023-01-17T13:13:52.772Z,93097.91
2023-01-17T13:17:01.960Z,93090.81
2023-01-17T13:20:24.257Z,93100.00
2023-01-17T13:23:49.087Z,93097.06
2023-01-17T13:26:52.067Z,93091.56
2023-01-17T13:30:20.933Z,93090.00
2023-01-17T13:34:14.473Z,93073.09
2023-01-17T13:37:35.877Z,93074.50
2023-01-17T13:40:55.492Z,93079.59
2023-01-17T13:44:20.140Z,93076.44
2023-01-17T13:47:23.793Z,93079.03
2023-01-17T13:50:42.558Z,93074.75
2023-01-17T13:53:47.085Z,93074.28
2023-01-17T13:56:50.898Z,93064.63
2023-01-17T13:59:55.322Z,93064.75
2023-01-17T14:02:58.379Z,93060.41
2023-01-17T14:06:01.521Z,93057.50
2023-01-17T14:09:13.720Z,93048.06
2023-01-17T14:12:19.456Z,93041.94
2023-01-17T14:15:26.510Z,93040.03
2023-01-17T14:18:44.540Z,93042.84
2023-01-17T14:21:48.972Z,93032.88
2023-01-17T14:25:15.535Z,93030.91
2023-01-17T14:28:32.205Z,93027.41
2023-01-17T14:31:35.308Z,93033.72
2023-01-17T14:34:39.811Z,93025.44
2023-01-17T14:37:52.524Z,93027.41
2023-01-17T14:40:57.320Z,93024.59
2023-01-17T14:44:01.605Z,93018.38
2023-01-17T14:47:05.176Z,93019.63
2023-01-17T14:50:36.517Z,93014.91
2023-01-17T14:53:39.576Z,93014.81
2023-01-17T14:56:42.541Z,93007.78
2023-01-17T14:59:46.956Z,93011.75
2023-01-17T15:02:51.243Z,92998.53
2023-01-17T15:05:56.175Z,92996.69
2023-01-17T15:09:01.465Z,92992.91
2023-01-17T15:12:05.028Z,92990.41
2023-01-17T15:15:44.839Z,92988.13
2023-01-17T15:18:48.860Z,92982.59
2023-01-17T15:21:54.907Z,92989.00
2023-01-17T15:24:59.579Z,92976.09
2023-01-17T15:28:05.159Z,92984.59
2023-01-17T15:31:09.933Z,92991.47
2023-01-17T15:34:26.367Z,92985.47
2023-01-17T15:37:35.587Z,92972.94
2023-01-17T15:40:44.159Z,92964.84
2023-01-17T15:43:47.826Z,92956.25
2023-01-17T15:46:51.084Z,92953.09
2023-01-17T15:49:54.057Z,92945.00
2023-01-17T15:53:06.157Z,92951.50
2023-01-17T15:56:34.237Z,92941.47
2023-01-17T15:59:45.991Z,92952.91
2023-01-17T16:03:00.278Z,92950.88
2023-01-17T16:06:04.992Z,92955.63
2023-01-17T16:09:21.454Z,92943.44
2023-01-17T16:12:24.194Z,92941.06
2023-01-17T16:15:28.940Z,92940.16
2023-01-17T16:18:31.759Z,92937.97
2023-01-17T16:21:34.969Z,92946.38
2023-01-17T16:24:37.806Z,92949.28
2023-01-17T16:27:43.864Z,92952.91
2023-01-17T16:30:49.321Z,92950.00
2023-01-17T16:33:52.623Z,92947.94
2023-01-17T16:36:55.375Z,92942.97
2023-01-17T16:39:58.161Z,92931.22
2023-01-17T16:43:01.636Z,92927.13
2023-01-17T16:46:04.847Z,92932.84
2023-01-17T16:49:07.829Z,92926.66
2023-01-17T16:52:11.036Z,92928.56
2023-01-17T16:55:17.013Z,92926.97
2023-01-17T16:58:21.021Z,92921.50
2023-01-17T17:01:25.857Z,92908.13
2023-01-17T17:04:28.870Z,92909.25
2023-01-17T17:07:31.726Z,92896.34
2023-01-17T17:10:35.027Z,92888.66
2023-01-17T17:13:38.340Z,92886.88
2023-01-17T17:16:42.703Z,92882.41
2023-01-17T17:19:49.051Z,92881.22
2023-01-17T17:22:53.163Z,92878.28
2023-01-17T17:25:57.942Z,92876.91
2023-01-17T17:29:02.123Z,92867.69
2023-01-17T17:32:07.593Z,92876.22
2023-01-17T17:35:11.205Z,92879.09
2023-01-17T17:38:14.193Z,92876.38
2023-01-17T17:41:28.692Z,92872.41
2023-01-17T17:44:31.649Z,92872.50
2023-01-17T17:47:34.819Z,92870.53
2023-01-17T17:50:37.678Z,92869.47
2023-01-17T17:53:40.688Z,92873.91
2023-01-17T17:56:47.138Z,92868.00
2023-01-17T17:59:50.728Z,92868.88
2023-01-17T18:02:53.635Z,92871.53
2023-01-17T18:06:03.013Z,92867.78
2023-01-17T18:09:08.289Z,92865.31
2023-01-17T18:12:11.602Z,92859.38
2023-01-17T18:15:15.519Z,92861.72
2023-01-17T18:18:18.816Z,92861.72
2023-01-17T18:21:27.410Z,92852.28
2023-01-17T18:24:30.363Z,92854.44
2023-01-17T18:27:33.945Z,92861.25
2023-01-17T18:30:39.375Z,92857.53
2023-01-17T18:33:43.066Z,92849.28
2023-01-17T18:36:46.565Z,92845.63
2023-01-17T18:39:49.728Z,92840.16
2023-01-17T18:42:52.860Z,92827.78
2023-01-17T18:45:56.007Z,92824.13
2023-01-17T18:49:00.190Z,92831.44
2023-01-17T18:52:03.895Z,92820.94
2023-01-17T18:55:08.352Z,92818.41
2023-01-17T18:58:11.307Z,92823.28
2023-01-17T19:01:24.314Z,92830.06
2023-01-17T19:04:29.045Z,92821.94
2023-01-17T19:07:34.188Z,92817.81
2023-01-17T19:10:37.010Z,92813.81
2023-01-17T19:13:42.622Z,92813.44
2023-01-17T19:16:48.607Z,92816.28
2023-01-17T19:19:52.253Z,92813.38
2023-01-17T19:22:55.980Z,92819.97
2023-01-17T19:25:59.553Z,92818.97
2023-01-17T19:29:07.212Z,92814.47
2023-01-17T19:32:11.097Z,92805.09
2023-01-17T19:35:14.899Z,92804.47
2023-01-17T19:38:18.192Z,92800.91
2023-01-17T19:41:27.158Z,92812.63
2023-01-17T19:44:30.868Z,92809.28
2023-01-17T19:47:34.380Z,92819.53
2023-01-17T19:50:38.289Z,92809.34
2023-01-17T19:53:42.368Z,92805.50
2023-01-17T19:56:45.293Z,92803.75
2023-01-17T19:59:48.773Z,92800.41
2023-01-17T20:02:51.873Z,92805.94
2023-01-17T20:06:00.980Z,92798.69
2023-01-17T20:09:06.034Z,92808.75
2023-01-17T20:12:09.079Z,92806.69
2023-01-17T20:15:12.802Z,92799.09
2023-01-17T20:18:16.254Z,92791.06
2023-01-17T20:21:24.241Z,92802.47
2023-01-17T20:24:27.883Z,92802.81
2023-01-17T20:27:30.693Z,92803.38
2023-01-17T20:30:35.132Z,92794.16
2023-01-17T20:33:38.062Z,92791.94
2023-01-17T20:36:42.582Z,92790.28
2023-01-17T20:39:46.333Z,92785.69
2023-01-17T20:42:49.421Z,92779.91
2023-01-17T20:45:57.118Z,92773.91
2023-01-17T20:49:06.008Z,92779.34
2023-01-17T20:52:09.190Z,92772.16
2023-01-17T20:55:12.116Z,92775.16
2023-01-17T20:58:15.605Z,92768.50
2023-01-17T21:01:21.316Z,92761.88
2023-01-17T21:04:26.479Z,92761.88
2023-01-17T21:07:29.373Z,92758.38
2023-01-17T21:10:32.525Z,92756.97
2023-01-17T21:13:36.666Z,92762.31
2023-01-17T21:16:41.044Z,92750.06
2023-01-17T21:19:44.501Z,92761.50
2023-01-17T21:22:48.581Z,92755.22
2023-01-17T21:25:55.920Z,92754.50
2023-01-17T21:29:01.393Z,92740.75
2023-01-17T21:32:05.357Z,92744.22
2023-01-17T21:35:09.000Z,92734.97
2023-01-17T21:38:14.332Z,92728.91
2023-01-17T21:41:17.587Z,92746.44
2023-01-17T21:44:23.677Z,92744.91
2023-01-17T21:47:26.819Z,92747.78
2023-01-17T21:50:33.632Z,92742.13
2023-01-17T21:53:39.759Z,92750.13
2023-01-17T21:57:01.978Z,92755.31
2023-01-17T22:00:12.705Z,92761.59
2023-01-17T22:03:18.185Z,92764.81
2023-01-17T22:06:22.776Z,92754.66
2023-01-17T22:09:26.364Z,92755.28
2023-01-17T22:12:30.306Z,92761.97
2023-01-17T22:15:37.038Z,92754.09
2023-01-17T22:18:42.357Z,92753.06
2023-01-17T22:21:45.959Z,92756.56
2023-01-17T22:24:49.244Z,92752.66
2023-01-17T22:27:52.255Z,92772.75
2023-01-17T22:30:56.255Z,92761.47
2023-01-17T22:34:02.600Z,92755.91
2023-01-17T22:37:10.552Z,92754.22
2023-01-17T22:40:14.034Z,92754.25
2023-01-17T22:43:17.755Z,92760.41
2023-01-17T22:46:26.472Z,92754.19
2023-01-17T22:49:30.060Z,92761.50
2023-01-17T22:52:34.203Z,92758.03
2023-01-17T22:55:37.803Z,92768.19
2023-01-17T22:58:45.553Z,92767.13
2023-01-17T23:01:49.059Z,92787.59
2023-01-17T23:04:53.207Z,92783.69
2023-01-17T23:07:57.075Z,92783.59
2023-01-17T23:11:19.023Z,92784.84
2023-01-17T23:14:51.983Z,92791.22
2023-01-17T23:18:13.937Z,92783.84
2023-01-17T23:21:17.533Z,92787.03
2023-01-17T23:24:21.075Z,92792.47
2023-01-17T23:28:02.617Z,92788.22
2023-01-17T23:31:06.965Z,92808.22
2023-01-17T23:34:09.938Z,92806.94
2023-01-17T23:37:13.497Z,92810.78
2023-01-17T23:40:18.219Z,92813.81
2023-01-17T23:43:25.160Z,92814.56
2023-01-17T23:46:30.619Z,92828.63
2023-01-17T23:49:34.527Z,92822.78
2023-01-17T23:52:37.748Z,92830.47
2023-01-17T23:55:43.216Z,92834.66
2023-01-17T23:58:46.325Z,92836.41
